Time;durP1;ratioP1;P1;durP2;ratioP2;P2;SDS_P1;SDS_P2;PMS_P1;PMS_P2;Temp;Humidity;BMP_temperature;BMP_pressure;BME280_temperature;BME280_humidity;BME280_pressure;Samples;Min_cycle;Max_cycle;Signal;HPM_P1;HPM_P2
2021/07/13 00:01:08;;;;;;;20.83;15.68;;;691.90;1536.00;;;;;;5095381;28;20024;-60
2021/07/13 00:03:34;;;;;;;17.38;15.68;;;691.90;1536.00;;;;;;5095220;28;20031;-60
2021/07/13 00:06:00;;;;;;;21.42;15.50;;;691.90;1536.00;;;;;;5095185;28;20480;-52
2021/07/13 00:08:26;;;;;;;19.92;16.05;;;691.90;1536.00;;;;;;5095454;28;20020;-60
2021/07/13 00:10:52;;;;;;;20.50;15.73;;;691.90;1536.00;;;;;;5095216;28;20099;-59
2021/07/13 00:13:18;;;;;;;18.42;16.05;;;691.90;1536.00;;;;;;5094937;28;20504;-58
2021/07/13 00:15:44;;;;;;;18.50;14.75;;;691.80;1536.00;;;;;;5095191;28;20095;-56
2021/07/13 00:18:11;;;;;;;18.65;15.27;;;691.80;1536.00;;;;;;5096203;28;20024;-60
2021/07/13 00:20:38;;;;;;;18.02;16.00;;;691.80;1536.00;;;;;;5094864;28;20020;-60
2021/07/13 00:23:04;;;;;;;20.42;15.68;;;691.80;1536.00;;;;;;5095010;28;20071;-60
2021/07/13 00:25:34;;;;;;;21.88;14.57;;;691.90;1536.00;;;;;;5094630;28;20085;-53
2021/07/13 00:28:00;;;;;;;15.95;13.85;;;691.90;1536.00;;;;;;5094822;28;20028;-56
2021/07/13 00:30:26;;;;;;;23.95;14.00;;;691.80;1536.00;;;;;;5095345;28;20031;-60
2021/07/13 00:32:53;;;;;;;21.08;15.25;;;691.80;1536.00;;;;;;5094705;28;20058;-60
2021/07/13 00:35:19;;;;;;;21.33;14.90;;;691.80;1510.40;;;;;;5094571;28;20445;-60
2021/07/13 00:37:46;;;;;;;16.60;14.65;;;691.80;1536.00;;;;;;5094514;28;20027;-59
2021/07/13 00:40:13;;;;;;;22.73;15.00;;;691.80;1536.00;;;;;;5094758;28;20020;-60
2021/07/13 00:42:42;;;;;;;22.98;16.25;;;691.80;1536.00;;;;;;5094412;28;20052;-59
2021/07/13 00:45:08;;;;;;;19.55;16.13;;;691.70;1536.00;;;;;;5094718;28;20128;-60
2021/07/13 00:47:35;;;;;;;19.73;15.85;;;691.70;1536.00;;;;;;5094289;28;20044;-60
2021/07/13 00:50:01;;;;;;;18.05;15.45;;;691.60;1536.00;;;;;;5094706;28;20065;-60
2021/07/13 00:52:28;;;;;;;24.42;16.17;;;691.70;1536.00;;;;;;5094852;28;20133;-60
2021/07/13 00:54:55;;;;;;;18.27;16.23;;;691.50;1536.00;;;;;;5094157;28;20027;-53
2021/07/13 00:57:21;;;;;;;25.15;17.27;;;691.50;1561.60;;;;;;5094323;28;20099;-58
2021/07/13 00:59:48;;;;;;;19.38;16.88;;;691.50;1561.60;;;;;;5094204;28;20099;-59
2021/07/13 01:02:16;;;;;;;20.48;16.05;;;691.50;1561.60;;;;;;5094343;28;20043;-59
2021/07/13 01:04:47;;;;;;;24.80;16.65;;;691.50;1561.60;;;;;;5094014;28;20028;-59
2021/07/13 01:07:58;;;;;;;18.60;16.65;;;691.50;1561.60;;;;;;5094645;28;20012;-60
2021/07/13 01:10:38;;;;;;;20.67;16.02;;;691.40;1561.60;;;;;;5094638;28;20507;-58
2021/07/13 01:13:24;;;;;;;20.67;15.70;;;691.40;1561.60;;;;;;5093567;28;20101;-53
2021/07/13 01:16:08;;;;;;;21.13;14.88;;;691.40;1561.60;;;;;;5094245;28;20059;-59
2021/07/13 01:18:40;;;;;;;18.25;15.93;;;691.40;1561.60;;;;;;5094048;28;20028;-60
2021/07/13 01:21:12;;;;;;;19.63;15.73;;;691.40;1561.60;;;;;;5094084;28;20023;-61
2021/07/13 01:23:50;;;;;;;18.77;15.75;;;691.40;1561.60;;;;;;5093586;28;20048;-60
2021/07/13 01:26:33;;;;;;;16.55;14.82;;;691.40;1561.60;;;;;;5094346;28;20388;-61
2021/07/13 01:29:03;;;;;;;17.63;15.68;;;691.30;1561.60;;;;;;5094064;28;20027;-61
2021/07/13 01:31:30;;;;;;;21.05;17.15;;;691.30;1561.60;;;;;;5093713;28;20035;-60
2021/07/13 01:34:07;;;;;;;17.90;15.85;;;691.30;1561.60;;;;;;5094357;28;20046;-60
2021/07/13 01:36:50;;;;;;;17.73;15.73;;;691.30;1561.60;;;;;;5093975;28;20028;-60
2021/07/13 01:39:18;;;;;;;16.85;15.05;;;691.30;1587.20;;;;;;5093676;28;20020;-57
2021/07/13 01:41:48;;;;;;;20.00;15.80;;;691.30;1561.60;;;;;;5093590;28;20028;-53
2021/07/13 01:44:15;;;;;;;16.50;14.55;;;691.30;1561.60;;;;;;5093459;28;20031;-60
2021/07/13 01:46:43;;;;;;;18.88;13.80;;;691.30;1561.60;;;;;;5093524;28;20070;-60
2021/07/13 01:49:10;;;;;;;17.15;15.55;;;691.30;1561.60;;;;;;5093520;28;20041;-60
2021/07/13 01:51:38;;;;;;;17.33;15.60;;;691.30;1561.60;;;;;;5092370;28;20105;-60
2021/07/13 01:54:11;;;;;;;17.27;15.20;;;691.30;1561.60;;;;;;5093565;28;20097;-60
2021/07/13 01:56:37;;;;;;;;;;;691.30;1561.60;;;;;;5094603;28;20051;-60
2021/07/13 01:59:04;;;;;;;19.27;16.02;;;691.30;1561.60;;;;;;5093374;28;19904;-52
2021/07/13 02:01:32;;;;;;;18.95;16.95;;;691.20;1561.60;;;;;;5093426;28;20419;-54
2021/07/13 02:04:02;;;;;;;19.05;17.05;;;691.20;1561.60;;;;;;5093795;28;20027;-60
2021/07/13 02:06:29;;;;;;;21.80;17.27;;;691.30;1561.60;;;;;;5093658;28;20028;-60
2021/07/13 02:09:05;;;;;;;18.58;16.77;;;691.30;1561.60;;;;;;5093502;28;20020;-60
2021/07/13 02:11:31;;;;;;;20.77;17.52;;;691.20;1561.60;;;;;;5094001;28;20043;-59
2021/07/13 02:13:57;;;;;;;26.80;16.98;;;691.20;1561.60;;;;;;5093396;28;20017;-60
2021/07/13 02:16:24;;;;;;;21.42;18.05;;;666.50;1587.20;;;;;;5093211;28;20514;-60
2021/07/13 02:18:50;;;;;;;20.58;17.85;;;691.20;1561.60;;;;;;5093321;28;20106;-58
2021/07/13 02:21:19;;;;;;;22.98;18.60;;;666.50;1561.60;;;;;;5093455;28;20176;-61
2021/07/13 02:23:46;;;;;;;19.38;17.40;;;691.20;1561.60;;;;;;5092867;28;20119;-52
2021/07/13 02:26:30;;;;;;;21.27;18.92;;;666.50;1561.60;;;;;;5093307;28;20028;-60
2021/07/13 02:29:08;;;;;;;22.30;18.50;;;666.50;1561.60;;;;;;5093522;28;20035;-61
2021/07/13 02:31:38;;;;;;;19.80;17.35;;;666.50;1561.60;;;;;;5093128;28;20028;-60
2021/07/13 02:34:11;;;;;;;21.50;17.08;;;666.40;1561.60;;;;;;5093128;28;20028;-60
2021/07/13 02:36:45;;;;;;;22.00;17.98;;;666.40;1561.60;;;;;;5093133;28;20373;-52
2021/07/13 02:39:12;;;;;;;24.08;18.95;;;666.40;1561.60;;;;;;5093388;28;20050;-52
2021/07/13 02:41:40;;;;;;;19.85;17.75;;;666.40;1561.60;;;;;;5093019;28;20043;-60
2021/07/13 02:44:07;;;;;;;29.63;17.05;;;666.40;1561.60;;;;;;5094766;28;20021;-61
2021/07/13 02:46:40;;;;;;;25.10;16.30;;;666.40;1561.60;;;;;;5096703;28;20467;-60
2021/07/13 02:49:08;;;;;;;26.13;16.70;;;666.40;1561.60;;;;;;5096633;28;20069;-60
2021/07/13 02:51:35;;;;;;;25.73;16.23;;;666.40;1561.60;;;;;;5096553;28;20035;-55
2021/07/13 02:54:02;;;;;;;22.95;17.73;;;666.40;1561.60;;;;;;5096624;28;20105;-60
2021/07/13 02:56:29;;;;;;;30.58;16.73;;;666.40;1561.60;;;;;;5096778;28;20449;-52
2021/07/13 02:59:01;;;;;;;21.45;17.17;;;666.40;1561.60;;;;;;5096631;28;20027;-60
2021/07/13 03:01:29;;;;;;;25.23;17.88;;;666.40;1561.60;;;;;;5096514;28;20031;-61
2021/07/13 03:03:56;;;;;;;24.50;17.17;;;666.40;1561.60;;;;;;5096253;28;20024;-53
2021/07/13 03:06:22;;;;;;;23.75;16.88;;;666.40;1561.60;;;;;;5096435;28;20028;-56
2021/07/13 03:08:48;;;;;;;23.92;16.73;;;666.40;1561.60;;;;;;5096426;28;20024;-60
2021/07/13 03:11:15;;;;;;;25.23;17.42;;;666.40;1561.60;;;;;;5096521;28;20024;-60
2021/07/13 03:13:41;;;;;;;29.90;16.75;;;666.40;1561.60;;;;;;5096425;28;20380;-59
2021/07/13 03:16:10;;;;;;;22.77;16.15;;;666.40;1561.60;;;;;;5094809;28;20438;-52
2021/07/13 03:18:37;;;;;;;23.65;16.60;;;666.30;1561.60;;;;;;5096105;28;20023;-60
2021/07/13 03:21:04;;;;;;;25.40;16.80;;;666.30;1561.60;;;;;;5096081;28;20083;-60
2021/07/13 03:23:37;;;;;;;20.80;16.13;;;666.30;1587.20;;;;;;5095747;28;20109;-53
2021/07/13 03:26:03;;;;;;;20.38;16.33;;;666.30;1561.60;;;;;;5095904;28;20032;-60
2021/07/13 03:28:30;;;;;;;20.48;15.55;;;666.30;1561.60;;;;;;5095872;28;20107;-60
2021/07/13 03:30:57;;;;;;;20.27;15.70;;;666.30;1561.60;;;;;;5096657;28;20024;-60
2021/07/13 03:33:24;;;;;;;20.45;16.75;;;666.30;1561.60;;;;;;5095886;28;20057;-55
2021/07/13 03:35:54;;;;;;;22.92;15.80;;;666.30;1587.20;;;;;;5095977;28;20440;-53
2021/07/13 03:38:20;;;;;;;20.77;16.40;;;666.30;1587.20;;;;;;5095735;28;20028;-56
2021/07/13 03:40:48;;;;;;;21.83;16.40;;;666.30;1587.20;;;;;;5095746;28;20496;-60
2021/07/13 03:43:15;;;;;;;22.48;16.10;;;666.30;1587.20;;;;;;5095756;28;20020;-60
2021/07/13 03:45:41;;;;;;;22.85;16.58;;;666.30;1587.20;;;;;;5095540;28;20067;-59
2021/07/13 03:48:11;;;;;;;31.80;17.25;;;666.20;1587.20;;;;;;5095806;28;20024;-60
2021/07/13 03:50:38;;;;;;;21.52;16.70;;;666.20;1587.20;;;;;;5095923;28;20430;-60
2021/07/13 03:53:04;;;;;;;30.50;18.00;;;666.10;1587.20;;;;;;5095751;28;20069;-61
2021/07/13 03:55:31;;;;;;;24.02;15.63;;;666.10;1587.20;;;;;;5095528;28;20028;-54
2021/07/13 03:57:57;;;;;;;22.85;17.08;;;666.10;1587.20;;;;;;5095367;28;20024;-61
2021/07/13 04:00:27;;;;;;;26.98;17.30;;;666.10;1587.20;;;;;;5095850;28;20103;-59
2021/07/13 04:02:53;;;;;;;26.10;16.70;;;666.10;1587.20;;;;;;5095408;28;20115;-57
2021/07/13 04:05:19;;;;;;;21.73;15.82;;;666.00;1587.20;;;;;;5095230;28;20028;-61
2021/07/13 04:07:45;;;;;;;24.88;16.17;;;666.10;1587.20;;;;;;5095167;28;20031;-59
2021/07/13 04:10:15;;;;;;;25.27;17.05;;;666.10;1587.20;;;;;;5095025;28;20028;-53
2021/07/13 04:12:41;;;;;;;27.23;16.42;;;666.10;1587.20;;;;;;5094992;28;20020;-55
2021/07/13 04:15:08;;;;;;;21.42;16.02;;;666.10;1587.20;;;;;;5094915;28;20024;-60
2021/07/13 04:17:34;;;;;;;26.98;16.85;;;666.10;1587.20;;;;;;5094812;28;20362;-52
2021/07/13 04:20:01;;;;;;;29.70;16.80;;;666.10;1587.20;;;;;;5094875;28;20043;-59
2021/07/13 04:22:27;;;;;;;23.27;17.20;;;666.10;1587.20;;;;;;5094636;28;20095;-60
2021/07/13 04:24:53;;;;;;;24.00;17.38;;;666.20;1587.20;;;;;;5095006;28;20165;-60
2021/07/13 04:27:19;;;;;;;26.70;17.75;;;666.30;1587.20;;;;;;5094768;28;20457;-60
2021/07/13 04:29:45;;;;;;;21.80;17.05;;;666.30;1587.20;;;;;;5094633;28;20027;-59
2021/07/13 04:32:11;;;;;;;23.15;17.08;;;666.30;1612.80;;;;;;5094713;28;20055;-60
2021/07/13 04:34:37;;;;;;;21.33;16.42;;;666.40;1587.20;;;;;;5095214;28;20022;-60
2021/07/13 04:37:03;;;;;;;19.95;16.38;;;666.40;1587.20;;;;;;5094761;28;20476;-60
2021/07/13 04:39:29;;;;;;;20.55;16.42;;;666.40;1587.20;;;;;;5094547;28;20024;-59
2021/07/13 04:41:55;;;;;;;24.77;17.65;;;666.40;1587.20;;;;;;5094389;28;20032;-60
2021/07/13 04:44:21;;;;;;;25.38;17.13;;;666.50;1587.20;;;;;;5094537;28;20103;-53
2021/07/13 04:46:47;;;;;;;21.80;18.08;;;666.50;1587.20;;;;;;5094398;28;20372;-59
2021/07/13 04:49:13;;;;;;;20.75;16.02;;;691.20;1612.80;;;;;;5094865;28;20081;-60
2021/07/13 04:51:39;;;;;;;18.77;16.55;;;691.20;1612.80;;;;;;5094508;28;20020;-60
2021/07/13 04:54:05;;;;;;;19.58;15.60;;;691.20;1587.20;;;;;;5094289;28;20103;-60
2021/07/13 04:56:31;;;;;;;22.25;17.17;;;691.30;1587.20;;;;;;5094244;28;20051;-60
2021/07/13 04:58:57;;;;;;;21.38;16.52;;;691.30;1587.20;;;;;;5094179;28;20017;-60
2021/07/13 05:01:24;;;;;;;24.88;16.88;;;691.30;1587.20;;;;;;5094450;28;20028;-60
2021/07/13 05:03:49;;;;;;;19.63;16.27;;;691.40;1587.20;;;;;;5094407;28;20027;-60
2021/07/13 05:06:16;;;;;;;20.00;16.45;;;691.40;1587.20;;;;;;5093838;28;20032;-61
2021/07/13 05:08:42;;;;;;;22.77;16.63;;;691.40;1612.80;;;;;;5094297;28;20070;-61
2021/07/13 05:11:08;;;;;;;19.35;16.30;;;691.40;1587.20;;;;;;5094243;28;20153;-61
2021/07/13 05:13:34;;;;;;;20.80;16.60;;;691.40;1612.80;;;;;;5094000;28;20012;-61
2021/07/13 05:16:00;;;;;;;22.08;16.55;;;691.40;1587.20;;;;;;5094379;28;20020;-57
2021/07/13 05:18:26;;;;;;;27.70;16.10;;;691.50;1587.20;;;;;;5093941;28;20380;-60
2021/07/13 05:21:01;;;;;;;17.35;15.63;;;691.50;1587.20;;;;;;5093932;28;20020;-60
2021/07/13 05:23:27;;;;;;;19.23;15.90;;;691.60;1587.20;;;;;;5093672;28;20055;-60
2021/07/13 05:25:54;;;;;;;18.27;14.68;;;691.70;1587.20;;;;;;5093618;28;20094;-61
2021/07/13 05:28:20;;;;;;;18.77;15.07;;;691.70;1612.80;;;;;;5093823;28;20020;-60
2021/07/13 05:30:46;;;;;;;16.83;14.15;;;691.70;1587.20;;;;;;5093737;28;20051;-60
2021/07/13 05:33:14;;;;;;;17.65;14.85;;;691.70;1587.20;;;;;;5093660;28;20024;-60
2021/07/13 05:35:42;;;;;;;16.48;14.30;;;691.80;1587.20;;;;;;5093576;28;20519;-61
2021/07/13 05:38:09;;;;;;;16.67;14.50;;;691.80;1587.20;;;;;;5093665;28;20520;-61
2021/07/13 05:40:36;;;;;;;16.17;14.25;;;691.80;1587.20;;;;;;5093880;28;20024;-61
2021/07/13 05:43:02;;;;;;;18.48;15.57;;;691.80;1612.80;;;;;;5093676;28;20020;-53
2021/07/13 05:45:28;;;;;;;18.25;13.57;;;691.90;1587.20;;;;;;5094080;28;20169;-60
2021/07/13 05:47:54;;;;;;;17.45;13.90;;;691.90;1587.20;;;;;;5093520;28;20045;-61
2021/07/13 05:50:20;;;;;;;21.10;15.07;;;691.90;1561.60;;;;;;5093565;28;20140;-61
2021/07/13 05:52:46;;;;;;;17.08;14.23;;;692.00;1561.60;;;;;;5093452;28;20520;-61
2021/07/13 05:55:12;;;;;;;20.48;14.77;;;692.10;1561.60;;;;;;5093484;28;20021;-61
2021/07/13 05:57:38;;;;;;;17.13;14.50;;;716.80;1587.20;;;;;;5093691;28;20032;-61
2021/07/13 06:00:06;;;;;;;17.17;13.98;;;716.80;1587.20;;;;;;5093413;28;20028;-54
2021/07/13 06:02:32;;;;;;;17.15;14.73;;;716.80;1587.20;;;;;;5093341;28;20028;-60
2021/07/13 06:04:58;;;;;;;19.13;14.90;;;716.90;1587.20;;;;;;5093341;28;20077;-61
2021/07/13 06:07:24;;;;;;;18.15;14.82;;;716.90;1587.20;;;;;;5093409;28;20381;-59
2021/07/13 06:09:50;;;;;;;24.98;15.00;;;717.00;1587.20;;;;;;5093397;28;20472;-60
2021/07/13 06:12:16;;;;;;;19.92;14.52;;;717.00;1587.20;;;;;;5093223;28;20047;-60
2021/07/13 06:14:42;;;;;;;17.25;12.95;;;717.20;1587.20;;;;;;5093308;28;20024;-59
2021/07/13 06:17:08;;;;;;;17.23;12.35;;;717.20;1587.20;;;;;;5094218;28;20392;-59
2021/07/13 06:19:34;;;;;;;16.38;13.63;;;717.30;1561.60;;;;;;5097522;28;20473;-61
2021/07/13 06:22:01;;;;;;;13.73;12.02;;;717.30;1561.60;;;;;;5097098;28;20032;-57
2021/07/13 06:24:27;;;;;;;18.02;11.40;;;717.40;1536.00;;;;;;5096745;28;20044;-59
2021/07/13 06:26:53;;;;;;;14.30;12.57;;;717.50;1536.00;;;;;;5097286;28;20111;-60
2021/07/13 06:29:19;;;;;;;14.20;12.35;;;717.50;1561.60;;;;;;5097352;28;20027;-60
2021/07/13 06:31:45;;;;;;;13.85;12.45;;;717.60;1536.00;;;;;;5096702;28;20050;-59
2021/07/13 06:34:11;;;;;;;13.18;11.85;;;717.60;1536.00;;;;;;5096875;28;20028;-59
2021/07/13 06:36:38;;;;;;;13.30;11.30;;;742.40;1561.60;;;;;;5096865;28;20487;-59
2021/07/13 06:39:04;;;;;;;12.00;10.80;;;742.50;1561.60;;;;;;5096904;28;20016;-60
2021/07/13 06:41:30;;;;;;;14.00;12.02;;;742.50;1536.00;;;;;;5096767;28;20085;-60
2021/07/13 06:43:56;;;;;;;12.27;11.00;;;742.50;1536.00;;;;;;5096748;28;20028;-60
2021/07/13 06:46:22;;;;;;;12.98;11.60;;;742.70;1510.40;;;;;;5097056;28;20069;-60
2021/07/13 06:48:48;;;;;;;12.77;11.25;;;742.80;1510.40;;;;;;5096689;28;20100;-60
2021/07/13 06:51:14;;;;;;;14.40;11.48;;;742.90;1510.40;;;;;;5096634;28;20032;-60
2021/07/13 06:53:40;;;;;;;13.60;12.35;;;742.90;1510.40;;;;;;5095320;28;20063;-60
2021/07/13 06:56:06;;;;;;;14.50;11.55;;;743.10;1484.80;;;;;;5096559;28;20020;-60
2021/07/13 06:58:32;;;;;;;13.95;10.82;;;743.10;1484.80;;;;;;5096471;28;20032;-59
2021/07/13 07:00:58;;;;;;;13.20;11.02;;;743.20;1459.20;;;;;;5096625;28;20026;-60
2021/07/13 07:03:24;;;;;;;12.93;11.57;;;743.30;1459.20;;;;;;5096744;28;20054;-61
2021/07/13 07:05:50;;;;;;;15.80;11.45;;;768.00;1459.20;;;;;;5096459;28;20039;-55
2021/07/13 07:08:16;;;;;;;16.25;12.00;;;768.00;1459.20;;;;;;5096360;28;20384;-59
2021/07/13 07:10:42;;;;;;;12.50;11.20;;;768.10;1459.20;;;;;;5096312;28;20107;-59
2021/07/13 07:13:08;;;;;;;15.98;10.95;;;768.20;1433.60;;;;;;5096158;28;20376;-60
2021/07/13 07:15:33;;;;;;;15.63;10.60;;;768.30;1433.60;;;;;;5096735;28;20031;-60
2021/07/13 07:17:59;;;;;;;12.55;10.88;;;768.40;1433.60;;;;;;5096146;28;20073;-60
2021/07/13 07:20:27;;;;;;;17.10;11.00;;;768.40;1433.60;;;;;;5096115;28;20027;-60
2021/07/13 07:22:58;;;;;;;12.20;11.00;;;768.50;1433.60;;;;;;5096044;28;20073;-59
2021/07/13 07:25:24;;;;;;;12.32;10.65;;;768.60;1433.60;;;;;;5096483;28;20028;-59
2021/07/13 07:27:55;;;;;;;14.30;11.13;;;768.70;1408.00;;;;;;5095910;28;20021;-57
2021/07/13 07:30:23;;;;;;;14.02;10.95;;;768.60;1408.00;;;;;;5095431;28;20028;-59
2021/07/13 07:32:49;;;;;;;12.52;10.70;;;768.70;1408.00;;;;;;5095863;28;20021;-60
2021/07/13 07:35:15;;;;;;;15.07;11.25;;;768.70;1408.00;;;;;;5095839;28;20107;-58
2021/07/13 07:37:43;;;;;;;12.27;11.07;;;768.70;1408.00;;;;;;5095738;28;20098;-59
2021/07/13 07:40:17;;;;;;;13.25;11.02;;;768.90;1408.00;;;;;;5096005;28;20388;-59
2021/07/13 07:42:43;;;;;;;12.50;11.23;;;768.90;1408.00;;;;;;5095890;28;20461;-58
2021/07/13 07:45:10;;;;;;;11.60;10.43;;;768.90;1382.40;;;;;;5095656;28;20427;-60
2021/07/13 07:47:36;;;;;;;14.20;10.45;;;793.60;1408.00;;;;;;5095482;28;20384;-60
2021/07/13 07:50:03;;;;;;;12.10;10.50;;;793.60;1408.00;;;;;;5095521;28;20024;-59
2021/07/13 07:52:29;;;;;;;13.15;11.30;;;793.70;1408.00;;;;;;5096026;28;20099;-60
2021/07/13 07:54:56;;;;;;;15.40;10.70;;;793.70;1408.00;;;;;;5095445;28;20056;-60
2021/07/13 07:57:22;;;;;;;12.90;10.45;;;793.70;1408.00;;;;;;5095652;28;20415;-60
2021/07/13 07:59:48;;;;;;;12.43;10.90;;;793.70;1408.00;;;;;;5093977;28;20065;-60
2021/07/13 08:02:15;;;;;;;12.82;10.65;;;793.80;1408.00;;;;;;5095281;28;20362;-60
2021/07/13 08:04:42;;;;;;;17.48;10.70;;;793.80;1408.00;;;;;;5094855;28;20478;-59
2021/07/13 08:07:08;;;;;;;11.35;10.25;;;793.80;1382.40;;;;;;5095031;28;20542;-60
2021/07/13 08:09:34;;;;;;;12.05;10.30;;;793.80;1382.40;;;;;;5095409;28;20024;-60
2021/07/13 08:12:00;;;;;;;12.93;11.63;;;793.80;1382.40;;;;;;5095034;28;20489;-60
2021/07/13 08:14:26;;;;;;;15.23;10.88;;;793.80;1382.40;;;;;;5095050;28;20031;-60
2021/07/13 08:16:53;;;;;;;12.88;11.13;;;793.80;1382.40;;;;;;5094950;28;20021;-60
2021/07/13 08:19:19;;;;;;;18.33;12.05;;;793.90;1382.40;;;;;;5096018;28;20372;-60
2021/07/13 08:21:45;;;;;;;15.82;11.05;;;793.90;1382.40;;;;;;5095140;28;20149;-60
2021/07/13 08:24:11;;;;;;;13.13;11.50;;;793.90;1382.40;;;;;;5094556;28;20457;-59
2021/07/13 08:26:38;;;;;;;14.95;11.73;;;793.90;1382.40;;;;;;5094797;28;20016;-60
2021/07/13 08:29:04;;;;;;;14.30;11.25;;;793.90;1382.40;;;;;;5094818;28;20024;-59
2021/07/13 08:31:31;;;;;;;12.68;11.43;;;793.90;1382.40;;;;;;5094674;28;20039;-59
2021/07/13 08:33:57;;;;;;;15.18;12.88;;;794.00;1356.80;;;;;;5094738;28;20117;-60
2021/07/13 08:36:23;;;;;;;13.32;12.02;;;794.00;1356.80;;;;;;5094536;28;20509;-59
2021/07/13 08:38:49;;;;;;;14.18;11.32;;;794.00;1356.80;;;;;;5094320;28;20066;-57
2021/07/13 08:41:19;;;;;;;14.32;12.40;;;794.00;1356.80;;;;;;5093776;28;20028;-59
2021/07/13 08:43:45;;;;;;;17.08;12.25;;;794.00;1356.80;;;;;;5094460;28;20032;-60
2021/07/13 08:46:11;;;;;;;13.73;12.43;;;794.00;1356.80;;;;;;5094485;28;20396;-51
2021/07/13 08:48:40;;;;;;;15.45;12.77;;;794.10;1356.80;;;;;;5094273;28;20027;-51
2021/07/13 08:51:06;;;;;;;14.82;13.05;;;794.10;1356.80;;;;;;5094292;28;20051;-56
2021/07/13 08:53:33;;;;;;;17.55;13.32;;;794.10;1356.80;;;;;;5094222;28;20020;-51
2021/07/13 08:55:59;;;;;;;14.27;12.77;;;794.10;1356.80;;;;;;5094297;28;20035;-58
2021/07/13 08:58:26;;;;;;;14.77;13.25;;;794.10;1356.80;;;;;;5094606;28;20024;-51
2021/07/13 09:00:53;;;;;;;15.93;14.25;;;794.10;1356.80;;;;;;5094455;28;20103;-51
2021/07/13 09:03:21;;;;;;;15.32;13.55;;;794.10;1331.20;;;;;;5094696;28;20107;-52
2021/07/13 09:05:56;;;;;;;14.68;13.10;;;794.10;1356.80;;;;;;5094094;28;20381;-51
2021/07/13 09:08:23;;;;;;;14.75;13.40;;;794.10;1305.60;;;;;;5094267;28;20434;-53
2021/07/13 09:11:01;;;;;;;14.93;13.43;;;794.10;1331.20;;;;;;5093991;28;20017;-59
2021/07/13 09:13:30;;;;;;;19.75;14.00;;;794.10;1331.20;;;;;;5094013;28;20053;-51
2021/07/13 09:15:57;;;;;;;15.23;13.70;;;794.10;1331.20;;;;;;5094073;28;20031;-51
2021/07/13 09:18:54;;;;;;;15.57;14.05;;;794.10;1331.20;;;;;;5093921;28;20103;-51
2021/07/13 09:21:34;;;;;;;14.80;13.50;;;794.20;1331.20;;;;;;5093777;28;20020;-51
2021/07/13 09:24:05;;;;;;;14.68;13.10;;;794.10;1331.20;;;;;;5093709;28;20052;-51
2021/07/13 09:26:56;;;;;;;15.83;14.17;;;794.10;1331.20;;;;;;5093697;28;20054;-57
2021/07/13 09:29:42;;;;;;;15.07;13.57;;;794.10;1331.20;;;;;;5083753;28;20028;-59
2021/07/13 09:32:21;;;;;;;16.23;13.80;;;794.10;1331.20;;;;;;5093807;28;20032;-58
2021/07/13 09:35:10;;;;;;;15.50;13.02;;;794.10;1331.20;;;;;;5093696;28;20491;-59
2021/07/13 09:37:47;;;;;;;14.57;13.15;;;794.10;1331.20;;;;;;5090968;28;20028;-58
2021/07/13 09:40:15;;;;;;;15.63;14.10;;;794.10;1331.20;;;;;;5092150;28;20016;-55
2021/07/13 09:42:48;;;;;;;15.38;12.98;;;794.10;1331.20;;;;;;5092364;28;20115;-52
2021/07/13 09:45:20;;;;;;;15.00;13.50;;;794.10;1331.20;;;;;;5092230;28;20070;-56
2021/07/13 09:47:48;;;;;;;24.50;14.77;;;794.10;1331.20;;;;;;5092197;28;20372;-58
2021/07/13 09:50:33;;;;;;;57.50;16.58;;;794.10;1331.20;;;;;;5092009;28;20436;-59
2021/07/13 09:53:00;;;;;;;71.32;19.15;;;794.10;1356.80;;;;;;5091626;28;20086;-59
2021/07/13 09:55:27;;;;;;;78.15;19.35;;;794.10;1356.80;;;;;;5096609;28;20085;-58
2021/07/13 09:57:53;;;;;;;76.35;17.55;;;794.10;1356.80;;;;;;5096067;28;20544;-59
2021/07/13 10:00:20;;;;;;;46.00;15.90;;;794.20;1356.80;;;;;;5095096;28;20032;-59
2021/07/13 10:02:46;;;;;;;42.63;15.60;;;794.20;1356.80;;;;;;5096462;28;20077;-60
2021/07/13 10:05:13;;;;;;;35.25;14.35;;;794.20;1331.20;;;;;;5096151;28;20050;-59
2021/07/13 10:07:40;;;;;;;19.40;13.93;;;794.20;1331.20;;;;;;5096491;28;20047;-56
2021/07/13 10:10:08;;;;;;;29.48;14.30;;;794.20;1331.20;;;;;;5097326;28;20024;-58
2021/07/13 10:12:34;;;;;;;22.05;13.77;;;794.20;1331.20;;;;;;5097184;28;20024;-59
2021/07/13 10:15:00;;;;;;;24.77;13.27;;;794.20;1331.20;;;;;;5096871;28;20073;-53
2021/07/13 10:17:31;;;;;;;20.58;13.75;;;794.20;1331.20;;;;;;5096089;28;20467;-59
2021/07/13 10:20:11;;;;;;;19.10;12.75;;;794.20;1331.20;;;;;;5095980;28;20016;-59
2021/07/13 10:22:45;;;;;;;16.85;12.55;;;794.30;1331.20;;;;;;5095359;28;20349;-59
2021/07/13 10:25:11;;;;;;;14.38;12.55;;;794.30;1305.60;;;;;;5095857;28;20453;-52
2021/07/13 10:27:47;;;;;;;16.77;12.40;;;794.30;1305.60;;;;;;5092796;28;20012;-59
2021/07/13 10:30:34;;;;;;;16.38;12.65;;;794.30;1305.60;;;;;;5095588;28;20021;-58
2021/07/13 10:33:00;;;;;;;15.05;12.18;;;794.30;1331.20;;;;;;5093231;28;20019;-60
2021/07/13 10:35:30;;;;;;;16.20;12.18;;;794.40;1305.60;;;;;;5095683;28;20028;-59
2021/07/13 10:37:59;;;;;;;13.07;11.43;;;794.30;1305.60;;;;;;5095449;28;20020;-60
2021/07/13 10:40:24;;;;;;;17.33;12.50;;;794.30;1331.20;;;;;;5095392;28;20543;-59
2021/07/13 10:42:53;;;;;;;16.27;12.35;;;794.30;1305.60;;;;;;5094102;28;20169;-59
2021/07/13 10:45:28;;;;;;;16.83;13.52;;;794.40;1305.60;;;;;;5092733;28;20032;-55
2021/07/13 10:47:58;;;;;;;218.75;110.72;;;794.40;1305.60;;;;;;5095140;28;20472;-55
2021/07/13 10:50:29;;;;;;;1100.57;617.10;;;794.50;1305.60;;;;;;5095194;28;20062;-59
2021/07/13 10:53:22;;;;;;;1049.25;577.75;;;794.50;1280.00;;;;;;5095059;28;20943;-58
2021/07/13 10:56:01;;;;;;;807.72;471.85;;;819.20;1305.60;;;;;;5093934;28;20051;-59
2021/07/13 10:58:31;;;;;;;749.65;446.48;;;819.20;1280.00;;;;;;5093751;28;20029;-60
2021/07/13 11:01:00;;;;;;;781.17;461.00;;;794.50;1280.00;;;;;;5094893;28;20020;-60
2021/07/13 11:03:32;;;;;;;526.17;305.30;;;794.50;1305.60;;;;;;5095741;28;20028;-60
2021/07/13 11:05:58;;;;;;;663.90;392.50;;;794.50;1280.00;;;;;;5094366;28;20157;-57
2021/07/13 11:09:01;;;;;;;498.52;284.73;;;794.50;1280.00;;;;;;5094774;28;20492;-57
2021/07/13 11:11:29;;;;;;;450.10;245.93;;;819.20;1228.80;;;;;;5001988;28;20038;-52
2021/07/13 11:13:57;;;;;;;243.13;127.53;;;819.20;1280.00;;;;;;5012606;28;20030;-60
2021/07/13 11:16:36;;;;;;;331.75;172.45;;;819.20;1254.40;;;;;;5012516;28;20072;-53
2021/07/13 11:19:12;;;;;;;245.05;125.20;;;819.20;1254.40;;;;;;5012369;28;20050;-54
2021/07/13 11:21:43;;;;;;;245.52;126.75;;;819.20;1254.40;;;;;;5012487;28;20033;-57
2021/07/13 11:24:10;;;;;;;178.55;98.28;;;819.30;1254.40;;;;;;5012596;28;20133;-59
2021/07/13 11:26:39;;;;;;;148.05;80.43;;;819.30;1254.40;;;;;;5013801;28;20037;-59
2021/07/13 11:29:16;;;;;;;144.68;79.55;;;819.30;1254.40;;;;;;5013341;28;20030;-59
2021/07/13 11:31:45;;;;;;;108.13;60.53;;;819.30;1254.40;;;;;;5013813;28;20026;-59
2021/07/13 11:34:14;;;;;;;108.07;60.35;;;819.30;1254.40;;;;;;5012959;28;20526;-56
2021/07/13 11:36:40;;;;;;;116.45;63.17;;;819.40;1254.40;;;;;;5012180;28;20034;-60
2021/07/13 11:39:12;;;;;;;98.57;54.95;;;819.40;1254.40;;;;;;5012086;28;20093;-60
2021/07/13 11:41:39;;;;;;;97.77;48.67;;;819.40;1228.80;;;;;;5012080;28;20503;-59
2021/07/13 11:44:08;;;;;;;85.75;47.00;;;819.40;1254.40;;;;;;5011953;28;20514;-59
2021/07/13 11:46:36;;;;;;;45.85;27.85;;;819.40;1254.40;;;;;;5040740;28;20044;-53
2021/07/13 11:49:17;;;;;;;51.17;31.45;;;819.40;1228.80;;;;;;5091600;28;20024;-55
2021/07/13 11:51:57;;;;;;;50.75;29.33;;;819.40;1203.20;;;;;;5091708;28;20495;-56
2021/07/13 11:54:25;;;;;;;46.78;28.55;;;819.60;1228.80;;;;;;5091807;28;20051;-59
2021/07/13 11:56:54;;;;;;;47.70;26.80;;;819.60;1228.80;;;;;;5094124;28;20372;-52
2021/07/13 11:59:21;;;;;;;57.42;28.65;;;819.60;1254.40;;;;;;5093903;28;20042;-59
2021/07/13 12:01:54;;;;;;;51.25;23.60;;;819.60;1228.80;;;;;;5093893;28;20361;-59
2021/07/13 12:04:27;;;;;;;38.33;22.33;;;819.60;1254.40;;;;;;5094101;28;20020;-54
2021/07/13 12:06:58;;;;;;;28.73;20.17;;;819.60;1228.80;;;;;;5093844;28;20032;-59